Time;durP1;ratioP1;P1;durP2;ratioP2;P2;SDS_P1;SDS_P2;PMS_P1;PMS_P2;Temp;Humidity;BMP_temperature;BMP_pressure;BME280_temperature;BME280_humidity;BME280_pressure;Samples;Min_cycle;Max_cycle;Signal;HPM_P1;HPM_P2
2022/12/12 00:01:51;;;;;;;15.50;9.20;;;-1.60;99.90;-2.00;99723.00;;;;4812987;28;93295;-64
2022/12/12 00:04:18;;;;;;;11.80;7.43;;;-1.60;99.90;-2.00;99722.00;;;;4820331;28;92184;-64
2022/12/12 00:06:43;;;;;;;17.23;8.07;;;-1.60;99.90;-2.00;99722.00;;;;4817278;28;93162;-64
2022/12/12 00:09:09;;;;;;;16.17;9.07;;;-1.60;99.90;-2.00;99721.00;;;;4816975;28;94103;-64
2022/12/12 00:11:35;;;;;;;15.13;8.07;;;-1.60;99.90;-2.00;99718.00;;;;4818809;28;95696;-64
2022/12/12 00:14:01;;;;;;;18.23;8.90;;;-1.70;99.90;-2.00;99717.00;;;;4817904;28;92873;-64
2022/12/12 00:16:27;;;;;;;15.40;9.23;;;-1.50;99.90;-2.00;99723.00;;;;4813184;28;95722;-64
2022/12/12 00:18:53;;;;;;;18.87;9.90;;;-1.50;99.90;-2.00;99710.00;;;;4814028;28;93945;-65
2022/12/12 00:21:23;;;;;;;12.93;7.27;;;-1.50;99.90;-1.90;99713.00;;;;4816018;28;92885;-64
2022/12/12 00:23:50;;;;;;;16.40;9.30;;;-1.60;99.90;-2.00;99713.00;;;;4817465;28;92824;-65
2022/12/12 00:26:26;;;;;;;13.97;7.57;;;-1.50;99.90;-2.00;99704.00;;;;4821446;28;93072;-65
2022/12/12 00:28:52;;;;;;;15.83;8.00;;;-1.50;99.90;-2.00;99708.00;;;;4822378;28;92449;-65
2022/12/12 00:31:18;;;;;;;15.67;8.77;;;-1.60;99.90;-2.00;99711.00;;;;4824861;28;94054;-64
2022/12/12 00:33:46;;;;;;;14.03;7.77;;;-1.60;99.90;-2.00;99698.00;;;;4821711;28;97899;-64
2022/12/12 00:36:13;;;;;;;14.17;8.27;;;-1.60;99.90;-2.00;99702.00;;;;4821741;28;95013;-65
2022/12/12 00:38:39;;;;;;;17.80;8.97;;;-1.60;99.90;-2.00;99703.00;;;;4797319;29;109445;-65
2022/12/12 00:41:05;;;;;;;16.43;8.80;;;-1.60;99.90;-2.00;99708.00;;;;4814991;28;114255;-65
2022/12/12 00:43:31;;;;;;;14.70;7.37;;;-0.50;99.90;-2.00;99708.00;;;;4820717;28;92805;-65
2022/12/12 00:45:59;;;;;;;12.67;7.90;;;-1.60;99.90;-2.00;99702.00;;;;4799959;28;93035;-64
2022/12/12 00:48:25;;;;;;;14.83;9.07;;;-1.60;99.90;-2.00;99716.00;;;;4817772;28;93064;-64
2022/12/12 00:50:51;;;;;;;13.00;8.17;;;-1.60;99.90;-2.10;99708.00;;;;4819005;28;108083;-64
2022/12/12 00:53:17;;;;;;;19.90;8.67;;;-1.60;99.90;-2.10;99704.00;;;;4805557;28;92399;-65
2022/12/12 00:55:43;;;;;;;14.70;8.50;;;-1.60;99.90;-2.10;99708.00;;;;4819782;28;92973;-64
2022/12/12 00:58:09;;;;;;;12.20;8.37;;;-1.60;99.90;-2.00;99699.00;;;;4814493;28;123928;-65
2022/12/12 01:00:35;;;;;;;16.83;7.80;;;-1.60;99.90;-2.00;99704.00;;;;4814341;28;122734;-64
2022/12/12 01:03:00;;;;;;;17.80;9.57;;;-1.60;99.90;-2.00;99704.00;;;;4816908;28;92916;-65
2022/12/12 01:05:27;;;;;;;15.67;9.43;;;-1.70;99.90;-2.00;99708.00;;;;4818871;28;106531;-64
2022/12/12 01:07:53;;;;;;;17.27;10.43;;;-1.60;99.90;-2.00;99715.00;;;;4821484;28;97760;-65
2022/12/12 01:10:19;;;;;;;11.17;7.60;;;-1.60;99.90;-2.00;99708.00;;;;4817431;28;117703;-65
2022/12/12 01:12:44;;;;;;;14.23;8.30;;;-1.60;99.90;-2.00;99706.00;;;;4820035;28;97588;-64
2022/12/12 01:15:11;;;;;;;12.07;7.50;;;-1.50;99.90;-2.00;99711.00;;;;4815132;28;107122;-64
2022/12/12 01:17:37;;;;;;;15.57;9.27;;;-1.60;99.90;-2.00;99714.00;;;;4819634;28;93379;-64
2022/12/12 01:20:15;;;;;;;17.07;8.30;;;-1.60;99.90;-2.00;99711.00;;;;4815032;28;117860;-64
2022/12/12 01:22:41;;;;;;;12.13;8.53;;;-1.60;99.90;-2.00;99706.00;;;;4819668;28;105173;-65
2022/12/12 01:25:07;;;;;;;12.00;7.40;;;-1.60;99.90;-1.90;99713.00;;;;4816326;28;108751;-64
2022/12/12 01:27:32;;;;;;;18.67;8.33;;;-1.50;99.90;-2.00;99708.00;;;;4822552;28;92999;-65
2022/12/12 01:30:00;;;;;;;17.43;8.00;;;-1.50;99.90;-1.90;99709.00;;;;4819405;28;122859;-65
2022/12/12 01:32:27;;;;;;;18.37;8.90;;;-1.50;99.90;-1.90;99708.00;;;;4819668;28;93008;-64
2022/12/12 01:34:53;;;;;;;17.70;8.50;;;-1.50;99.90;-1.90;99707.00;;;;4815645;28;100248;-65
2022/12/12 01:37:19;;;;;;;13.50;7.20;;;-1.50;99.90;-1.90;99701.00;;;;4816425;28;115468;-65
2022/12/12 01:39:44;;;;;;;13.17;8.37;;;-1.50;99.90;-1.90;99707.00;;;;4815656;28;121088;-65
2022/12/12 01:42:17;;;;;;;15.53;8.60;;;-1.50;99.90;-1.90;99708.00;;;;4816375;28;109840;-65
2022/12/12 01:44:51;;;;;;;15.43;8.37;;;-1.50;99.90;-1.90;99714.00;;;;4822498;28;92754;-65
2022/12/12 01:47:20;;;;;;;11.50;7.63;;;-1.40;99.90;-1.90;99715.00;;;;4819178;28;92990;-66
2022/12/12 01:50:06;;;;;;;17.17;8.07;;;-1.50;99.90;-1.90;99723.00;;;;4814681;28;93875;-65
2022/12/12 01:52:40;;;;;;;11.27;6.90;;;-1.40;99.90;-1.90;99730.00;;;;4804084;28;100411;-65
2022/12/12 01:55:14;;;;;;;14.27;8.23;;;-1.40;99.90;-1.90;99731.00;;;;4816662;28;92941;-65
2022/12/12 01:57:45;;;;;;;14.87;8.37;;;-1.40;99.90;-1.80;99721.00;;;;4794494;29;93041;-65
2022/12/12 02:00:12;;;;;;;17.60;8.57;;;-1.20;99.90;-1.80;99718.00;;;;4813185;28;92869;-64
2022/12/12 02:02:41;;;;;;;16.77;8.40;;;-1.40;99.90;-1.80;99728.00;;;;4812055;28;103915;-65
2022/12/12 02:05:41;;;;;;;16.37;7.63;;;-1.40;99.90;-1.90;99720.00;;;;4813289;28;92870;-64
2022/12/12 02:08:09;;;;;;;9.87;7.30;;;-1.40;99.90;-1.90;99722.00;;;;4800193;29;115896;-65
2022/12/12 02:10:35;;;;;;;14.90;8.13;;;-1.40;99.90;-1.90;99716.00;;;;4810563;28;120486;-64
2022/12/12 02:13:08;;;;;;;12.80;7.33;;;-1.40;99.90;-1.90;99713.00;;;;4810879;28;100212;-64
2022/12/12 02:15:49;;;;;;;12.13;7.80;;;-1.50;99.90;-1.90;99712.00;;;;4791485;28;95061;-65
2022/12/12 02:18:33;;;;;;;16.00;8.03;;;-1.50;99.90;-1.90;99705.00;;;;4816534;28;110938;-65
2022/12/12 02:21:21;;;;;;;14.03;8.27;;;-1.60;99.90;-2.00;99714.00;;;;4811574;28;92837;-64
2022/12/12 02:24:10;;;;;;;13.50;8.07;;;-1.50;99.90;-2.00;99715.00;;;;4811947;28;93065;-65
2022/12/12 02:27:09;;;;;;;13.73;7.30;;;-1.50;99.90;-2.00;99714.00;;;;4812141;28;93056;-66
2022/12/12 02:30:08;;;;;;;13.53;8.40;;;-0.90;99.90;-2.00;99702.00;;;;4811974;28;93832;-64
2022/12/12 02:32:54;;;;;;;15.17;7.80;;;-0.80;99.90;-2.00;99706.00;;;;4811071;28;92958;-64
2022/12/12 02:35:58;;;;;;;18.53;8.33;;;-1.60;99.90;-2.00;99713.00;;;;4820004;28;93801;-65
2022/12/12 02:38:39;;;;;;;16.60;7.77;;;-1.50;99.90;-1.90;99706.00;;;;4801098;28;97054;-64
2022/12/12 02:41:12;;;;;;;20.17;9.37;;;-1.50;99.90;-1.90;99707.00;;;;4794858;28;106459;-64
2022/12/12 02:44:17;;;;;;;13.63;7.83;;;-1.60;99.90;-2.00;99708.00;;;;4801221;28;115696;-64
2022/12/12 02:47:10;;;;;;;14.17;8.07;;;-1.50;99.90;-2.00;99704.00;;;;4815439;28;104735;-64
2022/12/12 02:49:46;;;;;;;14.40;7.57;;;-1.50;99.90;-2.00;99709.00;;;;4815986;28;92895;-64
2022/12/12 02:52:11;;;;;;;12.97;8.07;;;-1.50;99.90;-2.00;99715.00;;;;4813137;28;99684;-65
2022/12/12 02:54:37;;;;;;;15.70;8.20;;;-1.50;99.90;-2.00;99723.00;;;;4815801;28;120891;-65
2022/12/12 02:57:12;;;;;;;16.80;8.70;;;-1.50;99.90;-2.00;99726.00;;;;4814816;28;110447;-65
2022/12/12 02:59:44;;;;;;;17.20;8.07;;;-1.50;99.90;-2.00;99723.00;;;;4801532;28;102905;-65
2022/12/12 03:09:16;;;;;;;12.43;7.57;;;-1.60;99.90;-2.00;99714.00;;;;4803228;28;94612;-65
2022/12/12 03:12:01;;;;;;;11.13;7.77;;;-1.50;99.90;-2.00;99723.00;;;;4814826;28;94289;-65
2022/12/12 03:14:47;;;;;;;16.30;7.97;;;-1.60;99.90;-2.00;99727.00;;;;4814727;28;93841;-65
2022/12/12 03:17:51;;;;;;;15.87;8.63;;;-1.70;99.90;-2.10;99720.00;;;;4795956;29;93182;-64
2022/12/12 03:20:46;;;;;;;11.37;8.33;;;-1.60;99.90;-2.10;99717.00;;;;4777723;28;103129;-65
2022/12/12 03:23:24;;;;;;;12.93;7.40;;;-1.50;99.90;-2.00;99720.00;;;;4802820;28;93158;-65
2022/12/12 03:26:29;;;;;;;17.50;8.73;;;-1.60;99.90;-2.00;99718.00;;;;4820142;28;93938;-65
2022/12/12 03:29:10;;;;;;;13.00;7.60;;;-1.60;99.90;-2.00;99724.00;;;;4820327;28;93142;-65
2022/12/12 03:31:42;;;;;;;12.57;7.30;;;-1.50;99.90;-1.90;99720.00;;;;4817364;28;105022;-65
2022/12/12 03:34:16;;;;;;;10.90;7.33;;;-1.50;99.90;-1.90;99724.00;;;;4815728;28;95597;-65
2022/12/12 03:37:09;;;;;;;13.50;7.60;;;-1.40;99.90;-1.90;99720.00;;;;4799291;28;94040;-65
2022/12/12 03:39:49;;;;;;;14.23;7.60;;;-1.50;99.90;-1.90;99717.00;;;;4803338;28;114204;-65
2022/12/12 03:42:35;;;;;;;18.47;8.30;;;-1.50;99.90;-1.90;99723.00;;;;4819651;28;102402;-65
2022/12/12 03:45:18;;;;;;;15.97;9.37;;;-1.60;99.90;-1.90;99720.00;;;;4804904;28;101395;-65
2022/12/12 03:47:57;;;;;;;12.40;7.53;;;-1.50;99.90;-1.90;99707.00;;;;4788151;28;113890;-65
2022/12/12 03:50:34;;;;;;;11.10;7.50;;;-1.50;99.90;-1.90;99713.00;;;;4816810;28;108838;-65
2022/12/12 03:53:16;;;;;;;13.73;7.27;;;-1.50;99.90;-1.90;99711.00;;;;4817240;28;103521;-65
2022/12/12 03:55:56;;;;;;;10.57;7.57;;;-1.40;99.90;-1.90;99709.00;;;;4802879;28;93054;-65
2022/12/12 03:58:54;;;;;;;12.83;7.50;;;-0.70;99.90;-1.90;99719.00;;;;4817289;28;92876;-66
2022/12/12 04:01:28;;;;;;;14.13;7.90;;;-1.50;99.90;-1.90;99717.00;;;;4793520;28;116647;-65
2022/12/12 04:04:30;;;;;;;15.07;8.23;;;-1.50;99.90;-1.90;99705.00;;;;4800911;28;93001;-64
2022/12/12 04:07:07;;;;;;;18.30;8.00;;;-1.50;99.90;-1.90;99704.00;;;;4803018;28;94181;-66
2022/12/12 04:12:57;;;;;;;13.13;8.50;;;-1.50;99.90;-1.90;99712.00;;;;4817458;28;92767;-65
2022/12/12 04:15:48;;;;;;;18.57;8.40;;;-1.40;99.90;-1.90;99716.00;;;;4817573;28;92858;-65
2022/12/12 04:18:24;;;;;;;18.53;9.00;;;-1.40;99.90;-1.90;99716.00;;;;4807603;28;92860;-65
2022/12/12 04:24:32;;;;;;;15.13;7.97;;;-1.50;99.90;-1.90;99717.00;;;;4817262;28;93186;-65
2022/12/12 04:27:19;;;;;;;14.40;7.97;;;-1.50;99.90;-1.90;99720.00;;;;4818396;28;92230;-64
2022/12/12 04:29:55;;;;;;;13.17;7.37;;;-1.50;99.90;-1.90;99716.00;;;;4801608;28;102032;-65
2022/12/12 04:32:27;;;;;;;18.70;8.00;;;-1.50;99.90;-1.90;99729.00;;;;4801417;29;116307;-65
2022/12/12 04:34:59;;;;;;;15.47;9.53;;;-1.50;99.90;-1.90;99733.00;;;;4798894;29;93780;-65
2022/12/12 04:37:33;;;;;;;16.43;8.27;;;-1.60;99.90;-1.90;99723.00;;;;4816697;28;110666;-65
2022/12/12 04:40:04;;;;;;;17.47;8.67;;;-1.50;99.90;-1.90;99725.00;;;;4803436;29;101872;-65
2022/12/12 04:42:36;;;;;;;14.47;8.03;;;-1.50;99.90;-1.90;99712.00;;;;4818008;28;111249;-65
2022/12/12 04:45:12;;;;;;;17.03;8.90;;;-1.50;99.90;-1.90;99718.00;;;;4800535;28;107523;-65
2022/12/12 04:47:39;;;;;;;14.20;7.73;;;-1.50;99.90;-1.90;99719.00;;;;4817866;28;103488;-65
2022/12/12 04:50:08;;;;;;;17.07;9.70;;;-1.50;99.90;-1.90;99724.00;;;;4803783;28;97680;-65
2022/12/12 04:52:36;;;;;;;11.83;7.33;;;-0.60;99.90;-1.90;99720.00;;;;4804831;28;92923;-65
2022/12/12 04:55:25;;;;;;;15.30;9.10;;;-1.50;99.90;-1.90;99724.00;;;;4815218;28;114465;-65
2022/12/12 04:57:55;;;;;;;16.50;7.70;;;-1.50;99.90;-1.90;99722.00;;;;4817423;28;93228;-64
2022/12/12 05:00:23;;;;;;;17.03;8.73;;;-1.50;99.90;-1.90;99725.00;;;;4790503;28;94253;-65
2022/12/12 05:03:15;;;;;;;14.43;7.77;;;-1.50;99.90;-1.90;99729.00;;;;4803033;28;93594;-65
2022/12/12 05:05:57;;;;;;;14.97;8.30;;;-1.60;99.90;-1.90;99732.00;;;;4794871;29;115622;-65
2022/12/12 05:08:27;;;;;;;12.27;7.20;;;-1.50;99.90;-1.90;99738.00;;;;4813867;28;96480;-65
2022/12/12 05:10:56;;;;;;;11.93;7.27;;;-1.40;99.90;-1.90;99733.00;;;;4815592;28;92880;-65
2022/12/12 05:13:28;;;;;;;14.20;6.67;;;-1.50;99.90;-1.90;99731.00;;;;4813890;28;94142;-66
2022/12/12 05:15:55;;;;;;;17.17;8.20;;;-1.60;99.90;-1.90;99737.00;;;;4811676;28;114136;-65
2022/12/12 05:18:21;;;;;;;17.00;8.63;;;-1.40;99.90;-1.80;99734.00;;;;4812622;28;109981;-65
2022/12/12 05:20:48;;;;;;;15.33;8.03;;;-1.50;99.90;-1.90;99726.00;;;;4814340;28;109055;-65
2022/12/12 05:23:14;;;;;;;13.17;7.47;;;-1.50;99.90;-1.80;99728.00;;;;4817167;28;114637;-65
2022/12/12 05:25:40;;;;;;;13.73;8.03;;;-1.40;99.90;-1.80;99740.00;;;;4821308;28;97451;-65
2022/12/12 05:28:05;;;;;;;14.00;8.73;;;-0.70;99.90;-1.90;99728.00;;;;4816735;28;110539;-66
2022/12/12 05:30:31;;;;;;;14.37;9.07;;;-1.40;99.90;-1.90;99741.00;;;;4811201;28;108767;-65
2022/12/12 05:32:57;;;;;;;14.73;8.03;;;-1.50;99.90;-1.90;99732.00;;;;4814749;28;107111;-65
2022/12/12 05:35:23;;;;;;;15.80;9.23;;;-1.50;99.90;-1.90;99734.00;;;;4811222;28;92882;-66
2022/12/12 05:37:49;;;;;;;15.77;8.77;;;-1.40;99.90;-1.90;99741.00;;;;4816631;28;93154;-65
2022/12/12 05:40:15;;;;;;;14.77;7.87;;;-1.50;99.90;-1.90;99734.00;;;;4812048;28;98085;-65
2022/12/12 05:42:41;;;;;;;15.77;7.67;;;-1.50;99.90;-1.90;99744.00;;;;4815597;28;122294;-66
2022/12/12 05:45:07;;;;;;;13.83;8.83;;;-1.50;99.90;-1.90;99732.00;;;;4798148;29;93304;-65
2022/12/12 05:47:34;;;;;;;17.00;9.00;;;-1.50;99.90;-1.90;99735.00;;;;4812435;28;99160;-65
2022/12/12 05:49:59;;;;;;;13.57;8.17;;;-1.50;99.90;-2.00;99732.00;;;;4812222;28;97237;-65
2022/12/12 05:52:26;;;;;;;14.43;7.70;;;-1.50;99.90;-2.00;99739.00;;;;4812357;28;122944;-65
2022/12/12 05:54:52;;;;;;;16.60;9.03;;;-1.50;99.90;-2.00;99728.00;;;;4808867;28;93821;-65
2022/12/12 05:57:18;;;;;;;19.50;8.63;;;-1.50;99.90;-2.00;99740.00;;;;4811799;28;93136;-65
2022/12/12 05:59:47;;;;;;;13.50;7.20;;;-1.50;99.90;-2.00;99740.00;;;;4810318;28;93159;-65
2022/12/12 06:02:15;;;;;;;17.73;8.47;;;-0.50;99.90;-2.00;99739.00;;;;4813204;28;94212;-65
2022/12/12 06:04:41;;;;;;;16.40;8.50;;;-1.60;99.90;-1.90;99758.00;;;;4809758;28;93926;-65
2022/12/12 06:07:07;;;;;;;15.93;8.00;;;-1.50;99.90;-1.90;99757.00;;;;4812599;28;104317;-65
2022/12/12 06:09:33;;;;;;;12.77;7.73;;;-1.50;99.90;-1.90;99746.00;;;;4819593;28;92856;-65
2022/12/12 06:11:58;;;;;;;13.30;7.67;;;-1.50;99.90;-1.80;99748.00;;;;4811549;28;104776;-65
2022/12/12 06:14:25;;;;;;;16.70;8.43;;;-1.50;99.90;-1.80;99754.00;;;;4810891;28;123169;-66
2022/12/12 06:16:51;;;;;;;14.53;7.97;;;-1.40;99.90;-1.80;99745.00;;;;4811854;28;94008;-65
2022/12/12 06:19:20;;;;;;;13.10;8.03;;;-1.40;99.90;-1.80;99748.00;;;;4813498;28;102682;-64
2022/12/12 06:21:46;;;;;;;18.50;8.97;;;-1.40;99.90;-1.80;99746.00;;;;4811395;28;94241;-65
2022/12/12 06:24:12;;;;;;;18.03;8.10;;;-1.40;99.90;-1.80;99752.00;;;;4806306;28;94665;-65
2022/12/12 06:26:38;;;;;;;13.80;7.87;;;-1.40;99.90;-1.80;99753.00;;;;4810512;28;109294;-65
2022/12/12 06:29:04;;;;;;;19.93;8.23;;;-1.40;99.90;-1.70;99758.00;;;;4814011;28;92853;-64
2022/12/12 06:31:30;;;;;;;15.50;8.00;;;-1.30;99.90;-1.70;99758.00;;;;4811396;28;110352;-65
2022/12/12 06:33:56;;;;;;;15.87;8.13;;;-1.40;99.90;-1.70;99775.00;;;;4811539;28;92926;-65
2022/12/12 06:36:23;;;;;;;14.53;8.47;;;-1.30;99.90;-1.70;99765.00;;;;4809404;28;92833;-64
2022/12/12 06:38:57;;;;;;;16.57;7.83;;;-1.30;99.90;-1.70;99767.00;;;;4808933;28;93913;-65
2022/12/12 06:41:26;;;;;;;15.87;8.20;;;-1.30;99.90;-1.70;99782.00;;;;4810658;28;93061;-65
2022/12/12 06:43:52;;;;;;;15.27;8.23;;;-1.30;99.90;-1.70;99781.00;;;;4817287;28;93668;-65
2022/12/12 06:46:22;;;;;;;13.80;7.80;;;-1.30;99.90;-1.60;99783.00;;;;4813890;28;93196;-65
2022/12/12 06:48:49;;;;;;;10.90;7.20;;;-1.20;99.90;-1.60;99787.00;;;;4808751;28;92968;-65
2022/12/12 06:51:22;;;;;;;13.70;8.53;;;-1.30;99.90;-1.60;99778.00;;;;4811919;28;94207;-65
2022/12/12 06:53:48;;;;;;;11.93;7.13;;;-1.20;99.90;-1.60;99788.00;;;;4811959;28;93532;-65
2022/12/12 06:56:19;;;;;;;17.73;8.33;;;-1.00;99.90;-1.60;99790.00;;;;4790998;28;92170;-65
2022/12/12 06:58:45;;;;;;;12.53;7.23;;;-1.20;99.90;-1.60;99788.00;;;;4810863;28;92937;-65
2022/12/12 07:01:12;;;;;;;15.03;8.13;;;-1.20;99.90;-1.60;99785.00;;;;4807557;28;96199;-64
2022/12/12 07:03:38;;;;;;;16.43;8.83;;;-1.10;99.90;-1.60;99785.00;;;;4810507;28;93916;-65
2022/12/12 07:06:05;;;;;;;15.60;8.90;;;-1.20;99.90;-1.70;99788.00;;;;4808286;28;110028;-64
2022/12/12 07:08:30;;;;;;;15.67;9.50;;;-1.20;99.90;-1.60;99791.00;;;;4798105;28;93237;-65
2022/12/12 07:11:04;;;;;;;15.10;8.20;;;-1.20;99.90;-1.70;99787.00;;;;4814887;28;97876;-65
2022/12/12 07:13:30;;;;;;;13.63;7.87;;;-1.20;99.90;-1.70;99803.00;;;;4814092;28;93901;-65
2022/12/12 07:15:55;;;;;;;23.70;9.73;;;-1.20;99.90;-1.60;99797.00;;;;4808654;28;92922;-65
2022/12/12 07:18:21;;;;;;;16.23;8.17;;;-1.20;99.90;-1.60;99804.00;;;;4808026;28;92993;-64
2022/12/12 07:20:47;;;;;;;15.97;8.47;;;-1.30;99.90;-1.60;99798.00;;;;4806692;28;122303;-65
2022/12/12 07:23:13;;;;;;;11.97;7.03;;;-1.20;99.90;-1.60;99804.00;;;;4807579;28;120316;-65
2022/12/12 07:25:42;;;;;;;14.40;7.90;;;-1.20;99.90;-1.60;99805.00;;;;4807984;28;92894;-64
2022/12/12 07:28:10;;;;;;;16.20;8.77;;;-1.20;99.90;-1.60;99808.00;;;;4807128;28;94172;-65
2022/12/12 07:30:42;;;;;;;14.50;7.97;;;-1.20;99.90;-1.60;99812.00;;;;4811216;28;93297;-65
2022/12/12 07:33:09;;;;;;;16.80;8.37;;;-1.20;99.90;-1.60;99811.00;;;;4808172;28;92837;-65
2022/12/12 07:35:35;;;;;;;14.23;8.50;;;-1.20;99.90;-1.60;99806.00;;;;4793289;29;100563;-65
2022/12/12 07:38:02;;;;;;;18.87;9.40;;;-1.20;99.90;-1.60;99817.00;;;;4808003;28;92836;-64
2022/12/12 07:40:28;;;;;;;14.50;8.50;;;-1.10;99.90;-1.60;99820.00;;;;4813956;28;94115;-65
2022/12/12 07:42:53;;;;;;;14.67;9.10;;;-1.20;99.90;-1.60;99823.00;;;;4792160;28;99475;-65
2022/12/12 07:45:19;;;;;;;15.57;8.47;;;-1.10;99.90;-1.60;99817.00;;;;4806883;28;111196;-65
2022/12/12 07:47:45;;;;;;;18.57;8.70;;;-1.10;99.90;-1.50;99818.00;;;;4810383;28;108828;-64
2022/12/12 07:50:11;;;;;;;17.17;9.13;;;-1.10;99.90;-1.50;99826.00;;;;4809081;28;93266;-65
2022/12/12 07:52:37;;;;;;;14.87;8.93;;;-1.20;99.90;-1.50;99826.00;;;;4810482;28;121216;-65
2022/12/12 07:55:04;;;;;;;18.67;9.43;;;-1.10;99.90;-1.50;99821.00;;;;4807803;28;109312;-65
2022/12/12 07:57:32;;;;;;;17.00;9.10;;;-1.10;99.90;-1.50;99826.00;;;;4808963;28;93119;-65
2022/12/12 07:59:58;;;;;;;14.37;7.77;;;-1.10;99.90;-1.50;99823.00;;;;4810862;28;92830;-65
2022/12/12 08:02:23;;;;;;;14.93;9.17;;;-1.00;99.90;-1.50;99834.00;;;;4787826;28;121986;-65
2022/12/12 08:04:49;;;;;;;14.37;8.80;;;-1.10;99.90;-1.50;99826.00;;;;4808014;28;109065;-65
2022/12/12 08:07:15;;;;;;;18.13;9.33;;;-1.00;99.90;-1.40;99831.00;;;;4809567;28;109506;-65
2022/12/12 08:09:41;;;;;;;10.87;8.27;;;-1.00;99.90;-1.40;99834.00;;;;4808551;28;122102;-65
2022/12/12 08:12:07;;;;;;;14.10;8.73;;;-0.90;99.90;-1.40;99833.00;;;;4792957;29;120778;-65
2022/12/12 08:14:32;;;;;;;15.37;8.13;;;-0.90;99.90;-1.40;99843.00;;;;4810010;28;109313;-65
2022/12/12 08:16:58;;;;;;;17.13;9.83;;;-0.90;99.90;-1.40;99838.00;;;;4805262;28;109181;-65
2022/12/12 08:19:24;;;;;;;15.03;8.53;;;-1.00;99.90;-1.30;99861.00;;;;4808604;28;123195;-65
2022/12/12 08:21:50;;;;;;;14.00;8.87;;;-1.00;99.90;-1.30;99849.00;;;;4810902;28;121414;-65
2022/12/12 08:24:16;;;;;;;20.90;11.13;;;-0.90;99.90;-1.30;99854.00;;;;4810069;28;110109;-65
2022/12/12 08:26:43;;;;;;;17.47;9.43;;;-1.80;99.90;-1.30;99855.00;;;;4810252;28;109368;-65
2022/12/12 08:29:10;;;;;;;23.60;9.73;;;-0.90;99.90;-1.30;99854.00;;;;4813734;28;108667;-65
2022/12/12 08:31:38;;;;;;;16.93;7.77;;;-1.00;99.90;-1.20;99854.00;;;;4799689;28;93264;-65
2022/12/12 08:34:04;;;;;;;13.17;8.07;;;-0.80;99.90;-1.20;99856.00;;;;4799326;28;92265;-64
2022/12/12 08:36:34;;;;;;;14.30;8.53;;;-0.80;99.90;-1.20;99854.00;;;;4810209;28;93510;-65
2022/12/12 08:39:09;;;;;;;18.37;9.70;;;-0.80;99.90;-1.20;99853.00;;;;4810789;28;93478;-65
2022/12/12 08:41:39;;;;;;;12.33;8.50;;;-0.90;99.90;-1.10;99859.00;;;;4812533;28;108599;-65
2022/12/12 08:44:07;;;;;;;19.07;9.33;;;-0.80;99.90;-1.10;99858.00;;;;4813303;28;92951;-66
2022/12/12 08:46:34;;;;;;;17.50;8.53;;;-0.70;99.90;-1.10;99853.00;;;;4813546;28;94233;-65
2022/12/12 08:48:59;;;;;;;14.97;8.43;;;-0.80;99.90;-1.10;99857.00;;;;4815480;28;93782;-65
2022/12/12 08:51:25;;;;;;;15.70;9.67;;;-0.60;99.90;-1.00;99852.00;;;;4810632;28;122201;-65
2022/12/12 08:53:52;;;;;;;14.43;7.73;;;-0.80;99.90;-1.00;99850.00;;;;4814214;28;110717;-66
2022/12/12 08:56:20;;;;;;;16.17;8.37;;;-0.60;99.90;-1.00;99863.00;;;;4811166;28;104874;-65
2022/12/12 08:58:46;;;;;;;13.83;7.90;;;-0.70;99.90;-1.00;99854.00;;;;4812885;28;92731;-65
2022/12/12 09:01:20;;;;;;;16.83;9.03;;;-0.70;99.90;-1.00;99867.00;;;;4814896;28;93007;-65
2022/12/12 09:03:46;;;;;;;16.53;9.23;;;-0.60;99.90;-0.90;99861.00;;;;4799796;28;93015;-65
2022/12/12 09:06:13;;;;;;;16.27;8.47;;;-0.60;99.90;-0.90;99861.00;;;;4815831;28;93928;-65
2022/12/12 09:08:39;;;;;;;13.67;8.17;;;-0.50;99.90;-0.90;99870.00;;;;4817865;28;92915;-65
2022/12/12 09:11:05;;;;;;;16.87;9.27;;;-0.60;99.90;-0.90;99870.00;;;;4814308;28;107691;-66
2022/12/12 09:13:31;;;;;;;15.97;8.93;;;-0.50;99.90;-0.90;99875.00;;;;4802974;28;92964;-64
2022/12/12 09:15:57;;;;;;;17.07;8.60;;;-0.60;99.90;-0.90;99885.00;;;;4813237;28;92959;-65
2022/12/12 09:18:23;;;;;;;14.50;9.30;;;-0.50;99.90;-0.90;99858.00;;;;4811106;28;121859;-66
2022/12/12 09:20:55;;;;;;;15.37;9.13;;;-0.60;99.90;-0.90;99869.00;;;;4812481;28;99849;-65
2022/12/12 09:23:22;;;;;;;23.10;9.23;;;-0.60;99.90;-0.90;99871.00;;;;4795037;28;92135;-66
2022/12/12 09:25:48;;;;;;;17.73;8.53;;;-0.10;99.90;-0.90;99871.00;;;;4812751;28;93338;-65
2022/12/12 09:28:17;;;;;;;18.13;9.70;;;-0.50;99.90;-0.90;99873.00;;;;4806026;28;93942;-66
2022/12/12 09:30:44;;;;;;;17.00;9.47;;;-0.40;99.90;-0.80;99865.00;;;;4809742;28;110976;-65
2022/12/12 09:33:12;;;;;;;18.90;9.03;;;-0.40;99.90;-0.80;99877.00;;;;4811302;28;92920;-66
2022/12/12 09:35:38;;;;;;;16.77;9.70;;;-0.40;99.90;-0.80;99877.00;;;;4799628;28;93208;-65
2022/12/12 09:38:04;;;;;;;18.83;8.60;;;-0.50;99.90;-0.80;99885.00;;;;4793681;28;93025;-66
2022/12/12 09:40:51;;;;;;;18.90;9.30;;;-0.40;99.90;-0.70;99888.00;;;;4811916;28;101263;-65
2022/12/12 09:43:22;;;;;;;18.40;9.77;;;-0.50;99.90;-0.70;99872.00;;;;4793025;28;93429;-65
2022/12/12 09:45:48;;;;;;;21.13;10.17;;;-0.10;99.90;-0.70;99888.00;;;;4798532;28;97006;-65
2022/12/12 09:48:43;;;;;;;13.80;8.80;;;-0.30;99.90;-0.70;99883.00;;;;4798368;28;94537;-66
2022/12/12 09:51:10;;;;;;;17.70;9.77;;;-0.40;99.90;-0.60;99888.00;;;;4811412;28;114833;-65
2022/12/12 09:53:38;;;;;;;16.90;8.60;;;0.50;99.90;-0.60;99882.00;;;;4814620;28;92859;-65
2022/12/12 09:56:10;;;;;;;19.60;10.13;;;-0.20;99.90;-0.50;99882.00;;;;4792438;28;99185;-65
2022/12/12 09:58:57;;;;;;;24.57;10.67;;;-0.20;99.90;-0.50;99890.00;;;;4811354;28;92982;-65
2022/12/12 10:01:48;;;;;;;15.13;9.17;;;-0.10;99.90;-0.50;99886.00;;;;4795677;28;92869;-65
2022/12/12 10:04:42;;;;;;;17.60;9.40;;;-0.10;99.90;-0.50;99896.00;;;;4811291;28;104593;-65
2022/12/12 10:07:18;;;;;;;17.70;9.63;;;-0.10;99.90;-0.40;99887.00;;;;4797118;28;93059;-65
2022/12/12 10:10:03;;;;;;;15.67;9.80;;;-0.10;99.90;-0.40;99894.00;;;;4811707;28;99471;-66
2022/12/12 10:12:31;;;;;;;16.33;9.77;;;0.00;99.90;-0.40;99894.00;;;;4796694;29;94649;-65
2022/12/12 10:15:30;;;;;;;15.53;9.93;;;-0.10;99.90;-0.40;99891.00;;;;4791567;28;104933;-66
2022/12/12 10:17:59;;;;;;;14.43;8.63;;;0.00;99.90;-0.40;99894.00;;;;4795397;28;93056;-64
2022/12/12 10:20:29;;;;;;;22.37;7.83;;;0.00;99.90;-0.30;99893.00;;;;4795087;29;101109;-65
2022/12/12 10:23:38;;;;;;;15.00;8.97;;;0.00;99.90;-0.30;99902.00;;;;4806176;28;93655;-65
2022/12/12 10:26:21;;;;;;;12.30;8.37;;;0.00;99.90;-0.30;99904.00;;;;4811293;28;97742;-65
2022/12/12 10:28:52;;;;;;;14.03;9.43;;;0.00;99.90;-0.30;99910.00;;;;4794774;28;93007;-65
2022/12/12 10:31:44;;;;;;;14.90;8.40;;;0.00;99.90;-0.30;99902.00;;;;4805443;28;116962;-66
2022/12/12 10:34:31;;;;;;;14.03;8.70;;;0.00;99.90;-0.30;99896.00;;;;4811818;28;115198;-65
2022/12/12 10:37:30;;;;;;;12.63;7.00;;;0.20;99.90;-0.30;99907.00;;;;4809846;28;93049;-66
2022/12/12 10:40:09;;;;;;;15.27;8.17;;;0.10;99.90;-0.20;99895.00;;;;4809898;28;94462;-66
2022/12/12 10:42:51;;;;;;;12.87;6.33;;;0.20;99.90;-0.20;99897.00;;;;4814721;28;92969;-66
2022/12/12 10:45:47;;;;;;;12.67;7.80;;;0.20;99.90;-0.20;99906.00;;;;4795850;28;113130;-65
2022/12/12 10:48:13;;;;;;;12.40;7.30;;;0.10;99.90;-0.20;99901.00;;;;4808307;28;93217;-65
2022/12/12 10:50:57;;;;;;;12.93;6.53;;;0.20;99.90;-0.20;99905.00;;;;4793616;28;95323;-66
2022/12/12 10:53:23;;;;;;;14.30;8.57;;;0.90;99.90;-0.10;99908.00;;;;4779409;28;94395;-65
2022/12/12 10:56:10;;;;;;;13.20;7.70;;;1.00;99.90;-0.10;99904.00;;;;4793024;28;122418;-65
2022/12/12 10:58:56;;;;;;;12.60;7.33;;;0.30;99.90;-0.20;99916.00;;;;4811909;28;92815;-65
2022/12/12 11:01:37;;;;;;;14.37;7.73;;;0.30;99.90;-0.20;99918.00;;;;4797756;28;93274;-65
2022/12/12 11:04:03;;;;;;;11.23;7.10;;;0.10;99.90;-0.20;99915.00;;;;4810266;28;93501;-66
2022/12/12 11:06:38;;;;;;;12.20;6.87;;;0.10;99.90;-0.20;99920.00;;;;4810645;28;93221;-65
2022/12/12 11:09:25;;;;;;;10.73;7.27;;;0.10;99.90;-0.20;99912.00;;;;4813205;28;92299;-65
2022/12/12 11:12:03;;;;;;;9.90;6.40;;;0.10;99.90;-0.20;99903.00;;;;4811230;28;101359;-65
2022/12/12 11:14:39;;;;;;;11.20;5.83;;;0.10;99.90;-0.20;99913.00;;;;4795455;28;94141;-65
2022/12/12 11:17:19;;;;;;;11.43;5.93;;;0.10;99.90;-0.20;99907.00;;;;4812096;28;93827;-65
2022/12/12 11:19:45;;;;;;;12.07;6.43;;;0.20;99.90;-0.20;99903.00;;;;4810727;28;97213;-65
2022/12/12 11:22:12;;;;;;;9.07;5.93;;;0.20;99.90;-0.20;99906.00;;;;4813020;28;107675;-65